sensor_id;sensor_type;location;lat;lon;timestamp;P1;durP1;ratioP1;P2;durP2;ratioP2
57441;SDS011;43284;47.042;15.498;2024-01-30T00:00:39;23.90;;;9.70;;
57441;SDS011;43284;47.042;15.498;2024-01-30T00:03:06;21.30;;;9.20;;
57441;SDS011;43284;47.042;15.498;2024-01-30T00:05:32;27.58;;;9.40;;
57441;SDS011;43284;47.042;15.498;2024-01-30T00:07:57;22.33;;;8.15;;
57441;SDS011;43284;47.042;15.498;2024-01-30T00:10:23;29.23;;;11.17;;
57441;SDS011;43284;47.042;15.498;2024-01-30T00:12:48;26.95;;;10.13;;
57441;SDS011;43284;47.042;15.498;2024-01-30T00:15:14;23.33;;;9.37;;
57441;SDS011;43284;47.042;15.498;2024-01-30T00:17:40;28.00;;;9.33;;
57441;SDS011;43284;47.042;15.498;2024-01-30T00:20:05;34.00;;;13.02;;
57441;SDS011;43284;47.042;15.498;2024-01-30T00:22:32;36.53;;;13.57;;
57441;SDS011;43284;47.042;15.498;2024-01-30T00:24:58;29.05;;;10.90;;
57441;SDS011;43284;47.042;15.498;2024-01-30T00:27:23;19.95;;;9.15;;
57441;SDS011;43284;47.042;15.498;2024-01-30T00:29:49;28.48;;;10.85;;
57441;SDS011;43284;47.042;15.498;2024-01-30T00:32:14;23.65;;;8.70;;
57441;SDS011;43284;47.042;15.498;2024-01-30T00:34:41;25.45;;;9.68;;
57441;SDS011;43284;47.042;15.498;2024-01-30T00:37:07;30.30;;;10.98;;
57441;SDS011;43284;47.042;15.498;2024-01-30T00:39:32;27.67;;;10.15;;
57441;SDS011;43284;47.042;15.498;2024-01-30T00:41:58;27.13;;;11.03;;
57441;SDS011;43284;47.042;15.498;2024-01-30T00:44:23;34.92;;;11.43;;
57441;SDS011;43284;47.042;15.498;2024-01-30T00:46:49;23.80;;;9.15;;
57441;SDS011;43284;47.042;15.498;2024-01-30T00:49:14;27.10;;;10.75;;
57441;SDS011;43284;47.042;15.498;2024-01-30T00:51:40;27.67;;;9.90;;
57441;SDS011;43284;47.042;15.498;2024-01-30T00:54:06;22.60;;;9.53;;
57441;SDS011;43284;47.042;15.498;2024-01-30T00:56:31;25.17;;;9.83;;
57441;SDS011;43284;47.042;15.498;2024-01-30T00:58:57;22.95;;;10.18;;
57441;SDS011;43284;47.042;15.498;2024-01-30T01:01:22;22.13;;;8.90;;
57441;SDS011;43284;47.042;15.498;2024-01-30T01:03:48;20.98;;;8.10;;
57441;SDS011;43284;47.042;15.498;2024-01-30T01:06:13;23.77;;;9.07;;
57441;SDS011;43284;47.042;15.498;2024-01-30T01:08:39;18.07;;;8.73;;
57441;SDS011;43284;47.042;15.498;2024-01-30T01:11:05;20.13;;;8.10;;
57441;SDS011;43284;47.042;15.498;2024-01-30T01:13:30;22.75;;;9.35;;
57441;SDS011;43284;47.042;15.498;2024-01-30T01:15:56;16.20;;;7.97;;
57441;SDS011;43284;47.042;15.498;2024-01-30T01:18:21;21.47;;;8.17;;
57441;SDS011;43284;47.042;15.498;2024-01-30T01:20:47;22.00;;;8.70;;
57441;SDS011;43284;47.042;15.498;2024-01-30T01:23:12;16.03;;;7.77;;
57441;SDS011;43284;47.042;15.498;2024-01-30T01:25:38;26.37;;;7.67;;
57441;SDS011;43284;47.042;15.498;2024-01-30T01:28:03;17.52;;;7.53;;
57441;SDS011;43284;47.042;15.498;2024-01-30T01:30:32;24.27;;;8.10;;
57441;SDS011;43284;47.042;15.498;2024-01-30T01:32:58;23.70;;;8.47;;
57441;SDS011;43284;47.042;15.498;2024-01-30T01:35:26;20.43;;;8.10;;
57441;SDS011;43284;47.042;15.498;2024-01-30T01:37:52;16.23;;;6.90;;
57441;SDS011;43284;47.042;15.498;2024-01-30T01:40:24;19.53;;;7.37;;
57441;SDS011;43284;47.042;15.498;2024-01-30T01:42:51;19.77;;;7.80;;
57441;SDS011;43284;47.042;15.498;2024-01-30T01:45:17;26.20;;;7.50;;
57441;SDS011;43284;47.042;15.498;2024-01-30T01:47:44;21.93;;;8.47;;
57441;SDS011;43284;47.042;15.498;2024-01-30T01:50:13;21.80;;;9.00;;
57441;SDS011;43284;47.042;15.498;2024-01-30T01:52:43;17.63;;;8.63;;
57441;SDS011;43284;47.042;15.498;2024-01-30T01:55:09;22.83;;;8.63;;
57441;SDS011;43284;47.042;15.498;2024-01-30T01:57:36;28.45;;;9.85;;
57441;SDS011;43284;47.042;15.498;2024-01-30T02:00:04;24.50;;;8.03;;
57441;SDS011;43284;47.042;15.498;2024-01-30T02:02:31;18.37;;;7.23;;
57441;SDS011;43284;47.042;15.498;2024-01-30T02:05:00;18.83;;;7.67;;
57441;SDS011;43284;47.042;15.498;2024-01-30T02:07:27;30.43;;;8.37;;
57441;SDS011;43284;47.042;15.498;2024-01-30T02:09:53;20.90;;;8.70;;
57441;SDS011;43284;47.042;15.498;2024-01-30T02:12:19;26.33;;;10.23;;
57441;SDS011;43284;47.042;15.498;2024-01-30T02:14:46;25.77;;;8.53;;
57441;SDS011;43284;47.042;15.498;2024-01-30T02:17:13;29.43;;;10.40;;
57441;SDS011;43284;47.042;15.498;2024-01-30T02:19:39;26.30;;;9.43;;
57441;SDS011;43284;47.042;15.498;2024-01-30T02:22:05;27.97;;;10.60;;
57441;SDS011;43284;47.042;15.498;2024-01-30T02:24:32;27.00;;;10.07;;
57441;SDS011;43284;47.042;15.498;2024-01-30T02:26:57;28.47;;;9.90;;
57441;SDS011;43284;47.042;15.498;2024-01-30T02:29:23;20.27;;;8.63;;
57441;SDS011;43284;47.042;15.498;2024-01-30T02:31:48;26.70;;;9.93;;
57441;SDS011;43284;47.042;15.498;2024-01-30T02:34:14;22.53;;;8.73;;
57441;SDS011;43284;47.042;15.498;2024-01-30T02:36:43;25.87;;;9.37;;
57441;SDS011;43284;47.042;15.498;2024-01-30T02:39:09;19.73;;;9.27;;
57441;SDS011;43284;47.042;15.498;2024-01-30T02:41:35;31.97;;;9.00;;
57441;SDS011;43284;47.042;15.498;2024-01-30T02:44:01;24.27;;;9.20;;
57441;SDS011;43284;47.042;15.498;2024-01-30T02:46:27;26.40;;;9.63;;
57441;SDS011;43284;47.042;15.498;2024-01-30T02:48:52;25.30;;;8.83;;
57441;SDS011;43284;47.042;15.498;2024-01-30T02:51:18;27.20;;;9.57;;
57441;SDS011;43284;47.042;15.498;2024-01-30T02:53:43;27.40;;;10.53;;
57441;SDS011;43284;47.042;15.498;2024-01-30T02:56:09;22.53;;;8.33;;
57441;SDS011;43284;47.042;15.498;2024-01-30T02:58:39;24.77;;;8.40;;
57441;SDS011;43284;47.042;15.498;2024-01-30T03:01:05;22.70;;;8.93;;
57441;SDS011;43284;47.042;15.498;2024-01-30T03:03:31;29.43;;;8.77;;
57441;SDS011;43284;47.042;15.498;2024-01-30T03:05:56;20.13;;;8.60;;
57441;SDS011;43284;47.042;15.498;2024-01-30T03:08:22;20.50;;;7.70;;
57441;SDS011;43284;47.042;15.498;2024-01-30T03:10:48;27.93;;;9.20;;
57441;SDS011;43284;47.042;15.498;2024-01-30T03:13:13;27.57;;;8.37;;
57441;SDS011;43284;47.042;15.498;2024-01-30T03:15:39;21.83;;;8.60;;
57441;SDS011;43284;47.042;15.498;2024-01-30T03:18:04;22.00;;;8.73;;
57441;SDS011;43284;47.042;15.498;2024-01-30T03:20:30;28.77;;;8.33;;
57441;SDS011;43284;47.042;15.498;2024-01-30T03:22:56;20.17;;;7.20;;
57441;SDS011;43284;47.042;15.498;2024-01-30T03:25:24;16.00;;;5.63;;
57441;SDS011;43284;47.042;15.498;2024-01-30T03:27:50;23.53;;;8.23;;
57441;SDS011;43284;47.042;15.498;2024-01-30T03:30:16;22.97;;;8.70;;
57441;SDS011;43284;47.042;15.498;2024-01-30T03:32:42;20.63;;;7.50;;
57441;SDS011;43284;47.042;15.498;2024-01-30T03:35:08;23.47;;;8.17;;
57441;SDS011;43284;47.042;15.498;2024-01-30T03:37:34;16.87;;;7.73;;
57441;SDS011;43284;47.042;15.498;2024-01-30T03:39:59;18.37;;;7.40;;
57441;SDS011;43284;47.042;15.498;2024-01-30T03:42:25;19.87;;;6.97;;
57441;SDS011;43284;47.042;15.498;2024-01-30T03:44:50;12.77;;;6.57;;
57441;SDS011;43284;47.042;15.498;2024-01-30T03:47:20;19.47;;;6.87;;
57441;SDS011;43284;47.042;15.498;2024-01-30T03:49:45;21.60;;;7.53;;
57441;SDS011;43284;47.042;15.498;2024-01-30T03:52:11;15.43;;;6.17;;
57441;SDS011;43284;47.042;15.498;2024-01-30T03:54:37;16.60;;;6.63;;
57441;SDS011;43284;47.042;15.498;2024-01-30T03:57:02;12.87;;;6.77;;
57441;SDS011;43284;47.042;15.498;2024-01-30T03:59:28;19.67;;;6.77;;
57441;SDS011;43284;47.042;15.498;2024-01-30T04:01:54;13.50;;;6.30;;
57441;SDS011;43284;47.042;15.498;2024-01-30T04:04:19;14.80;;;6.47;;
57441;SDS011;43284;47.042;15.498;2024-01-30T04:06:45;18.97;;;7.97;;
57441;SDS011;43284;47.042;15.498;2024-01-30T04:09:14;14.77;;;6.40;;
57441;SDS011;43284;47.042;15.498;2024-01-30T04:11:40;18.00;;;6.30;;
57441;SDS011;43284;47.042;15.498;2024-01-30T04:14:06;11.40;;;6.20;;
57441;SDS011;43284;47.042;15.498;2024-01-30T04:16:32;18.07;;;7.17;;
57441;SDS011;43284;47.042;15.498;2024-01-30T04:18:58;22.60;;;7.70;;
57441;SDS011;43284;47.042;15.498;2024-01-30T04:21:23;16.43;;;5.93;;
57441;SDS011;43284;47.042;15.498;2024-01-30T04:23:50;20.03;;;7.00;;
57441;SDS011;43284;47.042;15.498;2024-01-30T04:26:16;10.87;;;5.10;;
57441;SDS011;43284;47.042;15.498;2024-01-30T04:28:44;13.70;;;5.67;;
57441;SDS011;43284;47.042;15.498;2024-01-30T04:31:10;19.57;;;7.17;;
57441;SDS011;43284;47.042;15.498;2024-01-30T04:33:35;19.00;;;5.77;;
57441;SDS011;43284;47.042;15.498;2024-01-30T04:36:01;19.43;;;6.43;;
57441;SDS011;43284;47.042;15.498;2024-01-30T04:38:28;12.80;;;5.40;;
57441;SDS011;43284;47.042;15.498;2024-01-30T04:40:53;14.73;;;5.97;;
57441;SDS011;43284;47.042;15.498;2024-01-30T04:43:19;16.67;;;6.67;;
57441;SDS011;43284;47.042;15.498;2024-01-30T04:45:45;18.07;;;7.00;;
57441;SDS011;43284;47.042;15.498;2024-01-30T04:48:10;20.77;;;7.40;;
57441;SDS011;43284;47.042;15.498;2024-01-30T04:50:36;19.80;;;6.37;;
57441;SDS011;43284;47.042;15.498;2024-01-30T04:53:01;19.10;;;6.43;;
57441;SDS011;43284;47.042;15.498;2024-01-30T04:55:27;19.20;;;7.23;;
57441;SDS011;43284;47.042;15.498;2024-01-30T04:57:52;29.50;;;7.27;;
57441;SDS011;43284;47.042;15.498;2024-01-30T05:00:18;17.07;;;6.53;;
57441;SDS011;43284;47.042;15.498;2024-01-30T05:02:44;15.87;;;6.07;;
57441;SDS011;43284;47.042;15.498;2024-01-30T05:05:10;20.43;;;7.43;;
57441;SDS011;43284;47.042;15.498;2024-01-30T05:07:36;18.37;;;6.60;;
57441;SDS011;43284;47.042;15.498;2024-01-30T05:10:02;22.40;;;7.97;;
57441;SDS011;43284;47.042;15.498;2024-01-30T05:12:28;22.50;;;8.63;;
57441;SDS011;43284;47.042;15.498;2024-01-30T05:14:54;23.83;;;9.33;;
57441;SDS011;43284;47.042;15.498;2024-01-30T05:17:19;26.17;;;8.50;;
57441;SDS011;43284;47.042;15.498;2024-01-30T05:19:45;12.07;;;6.03;;
57441;SDS011;43284;47.042;15.498;2024-01-30T05:22:11;15.70;;;6.17;;
57441;SDS011;43284;47.042;15.498;2024-01-30T05:24:40;18.77;;;7.27;;
57441;SDS011;43284;47.042;15.498;2024-01-30T05:27:09;14.40;;;5.27;;
57441;SDS011;43284;47.042;15.498;2024-01-30T05:29:34;13.70;;;6.43;;
57441;SDS011;43284;47.042;15.498;2024-01-30T05:32:03;12.43;;;5.60;;
57441;SDS011;43284;47.042;15.498;2024-01-30T05:34:30;17.33;;;6.30;;
57441;SDS011;43284;47.042;15.498;2024-01-30T05:36:56;27.97;;;7.30;;
57441;SDS011;43284;47.042;15.498;2024-01-30T05:39:21;14.20;;;6.47;;
57441;SDS011;43284;47.042;15.498;2024-01-30T05:41:46;15.53;;;5.87;;
57441;SDS011;43284;47.042;15.498;2024-01-30T05:44:12;19.73;;;5.57;;
57441;SDS011;43284;47.042;15.498;2024-01-30T05:46:38;12.70;;;5.73;;
57441;SDS011;43284;47.042;15.498;2024-01-30T05:49:03;17.80;;;5.77;;
57441;SDS011;43284;47.042;15.498;2024-01-30T05:51:29;13.57;;;6.07;;
57441;SDS011;43284;47.042;15.498;2024-01-30T05:53:54;12.20;;;5.20;;
57441;SDS011;43284;47.042;15.498;2024-01-30T05:56:20;13.20;;;5.60;;
57441;SDS011;43284;47.042;15.498;2024-01-30T05:58:45;10.70;;;5.33;;
57441;SDS011;43284;47.042;15.498;2024-01-30T06:01:11;18.90;;;6.07;;
57441;SDS011;43284;47.042;15.498;2024-01-30T06:03:36;11.90;;;4.77;;
57441;SDS011;43284;47.042;15.498;2024-01-30T06:06:02;13.73;;;5.00;;
57441;SDS011;43284;47.042;15.498;2024-01-30T06:08:28;13.30;;;4.50;;
57441;SDS011;43284;47.042;15.498;2024-01-30T06:10:53;13.23;;;4.53;;
57441;SDS011;43284;47.042;15.498;2024-01-30T06:13:19;13.67;;;5.13;;
57441;SDS011;43284;47.042;15.498;2024-01-30T06:15:45;11.87;;;4.60;;
57441;SDS011;43284;47.042;15.498;2024-01-30T06:18:13;24.30;;;5.87;;
57441;SDS011;43284;47.042;15.498;2024-01-30T06:20:39;15.60;;;5.80;;
57441;SDS011;43284;47.042;15.498;2024-01-30T06:23:04;11.57;;;4.87;;
57441;SDS011;43284;47.042;15.498;2024-01-30T06:25:33;16.70;;;6.53;;
57441;SDS011;43284;47.042;15.498;2024-01-30T06:27:58;15.97;;;5.43;;
57441;SDS011;43284;47.042;15.498;2024-01-30T06:30:24;9.47;;;4.43;;
57441;SDS011;43284;47.042;15.498;2024-01-30T06:32:49;14.23;;;5.43;;
57441;SDS011;43284;47.042;15.498;2024-01-30T06:35:15;11.73;;;5.10;;
57441;SDS011;43284;47.042;15.498;2024-01-30T06:37:42;18.57;;;5.10;;
57441;SDS011;43284;47.042;15.498;2024-01-30T06:40:08;16.93;;;5.73;;
57441;SDS011;43284;47.042;15.498;2024-01-30T06:42:34;10.20;;;5.13;;
57441;SDS011;43284;47.042;15.498;2024-01-30T06:44:59;10.83;;;4.77;;
57441;SDS011;43284;47.042;15.498;2024-01-30T06:47:25;9.70;;;5.23;;
57441;SDS011;43284;47.042;15.498;2024-01-30T06:49:50;13.33;;;5.33;;
57441;SDS011;43284;47.042;15.498;2024-01-30T06:52:16;10.33;;;5.23;;
57441;SDS011;43284;47.042;15.498;2024-01-30T06:54:41;15.73;;;6.70;;
57441;SDS011;43284;47.042;15.498;2024-01-30T06:57:07;15.67;;;7.77;;
57441;SDS011;43284;47.042;15.498;2024-01-30T06:59:37;22.43;;;7.93;;
57441;SDS011;43284;47.042;15.498;2024-01-30T07:02:08;17.43;;;6.47;;
57441;SDS011;43284;47.042;15.498;2024-01-30T07:04:34;11.87;;;5.37;;
57441;SDS011;43284;47.042;15.498;2024-01-30T07:07:02;12.50;;;5.77;;
57441;SDS011;43284;47.042;15.498;2024-01-30T07:09:28;14.90;;;7.13;;
57441;SDS011;43284;47.042;15.498;2024-01-30T07:11:54;14.50;;;6.00;;
57441;SDS011;43284;47.042;15.498;2024-01-30T07:14:20;12.97;;;6.00;;
57441;SDS011;43284;47.042;15.498;2024-01-30T07:16:46;17.20;;;6.20;;
57441;SDS011;43284;47.042;15.498;2024-01-30T07:19:11;18.50;;;7.57;;
57441;SDS011;43284;47.042;15.498;2024-01-30T07:21:37;16.10;;;6.87;;
57441;SDS011;43284;47.042;15.498;2024-01-30T07:24:03;17.43;;;7.20;;
57441;SDS011;43284;47.042;15.498;2024-01-30T07:26:29;20.60;;;7.43;;
57441;SDS011;43284;47.042;15.498;2024-01-30T07:28:54;14.80;;;6.80;;
57441;SDS011;43284;47.042;15.498;2024-01-30T07:31:20;20.27;;;6.83;;
57441;SDS011;43284;47.042;15.498;2024-01-30T07:33:48;19.07;;;7.37;;
57441;SDS011;43284;47.042;15.498;2024-01-30T07:36:13;13.43;;;6.57;;
57441;SDS011;43284;47.042;15.498;2024-01-30T07:38:39;15.03;;;6.50;;
57441;SDS011;43284;47.042;15.498;2024-01-30T07:41:05;16.80;;;6.40;;
57441;SDS011;43284;47.042;15.498;2024-01-30T07:43:31;26.17;;;7.80;;
57441;SDS011;43284;47.042;15.498;2024-01-30T07:45:56;21.47;;;7.63;;
57441;SDS011;43284;47.042;15.498;2024-01-30T07:48:22;21.03;;;8.70;;
57441;SDS011;43284;47.042;15.498;2024-01-30T07:50:47;24.03;;;9.37;;
57441;SDS011;43284;47.042;15.498;2024-01-30T07:53:13;29.37;;;10.53;;
57441;SDS011;43284;47.042;15.498;2024-01-30T07:55:49;45.07;;;14.80;;
57441;SDS011;43284;47.042;15.498;2024-01-30T07:58:15;33.50;;;13.43;;
57441;SDS011;43284;47.042;15.498;2024-01-30T08:00:41;28.50;;;11.83;;
57441;SDS011;43284;47.042;15.498;2024-01-30T08:03:10;30.67;;;11.50;;
57441;SDS011;43284;47.042;15.498;2024-01-30T08:05:36;23.30;;;10.33;;
57441;SDS011;43284;47.042;15.498;2024-01-30T08:08:04;25.13;;;10.23;;
57441;SDS011;43284;47.042;15.498;2024-01-30T08:10:31;31.30;;;11.15;;
57441;SDS011;43284;47.042;15.498;2024-01-30T08:12:56;28.80;;;10.80;;
57441;SDS011;43284;47.042;15.498;2024-01-30T08:15:22;32.53;;;11.02;;
57441;SDS011;43284;47.042;15.498;2024-01-30T08:17:48;28.38;;;11.57;;
57441;SDS011;43284;47.042;15.498;2024-01-30T08:20:14;30.25;;;10.82;;
57441;SDS011;43284;47.042;15.498;2024-01-30T08:22:41;30.52;;;11.75;;
57441;SDS011;43284;47.042;15.498;2024-01-30T08:25:07;29.77;;;11.38;;
57441;SDS011;43284;47.042;15.498;2024-01-30T08:27:34;32.95;;;12.57;;
57441;SDS011;43284;47.042;15.498;2024-01-30T08:30:02;28.10;;;10.88;;
57441;SDS011;43284;47.042;15.498;2024-01-30T08:32:28;28.40;;;10.93;;
57441;SDS011;43284;47.042;15.498;2024-01-30T08:34:57;28.25;;;11.13;;
57441;SDS011;43284;47.042;15.498;2024-01-30T08:37:24;26.42;;;11.05;;
57441;SDS011;43284;47.042;15.498;2024-01-30T08:39:50;24.63;;;10.27;;
57441;SDS011;43284;47.042;15.498;2024-01-30T08:42:17;25.20;;;9.48;;
57441;SDS011;43284;47.042;15.498;2024-01-30T08:44:48;28.60;;;9.32;;
57441;SDS011;43284;47.042;15.498;2024-01-30T08:47:16;21.20;;;9.32;;
57441;SDS011;43284;47.042;15.498;2024-01-30T08:49:44;27.27;;;11.77;;
57441;SDS011;43284;47.042;15.498;2024-01-30T08:52:10;32.03;;;12.23;;
57441;SDS011;43284;47.042;15.498;2024-01-30T08:54:36;33.05;;;12.40;;
57441;SDS011;43284;47.042;15.498;2024-01-30T08:57:03;34.15;;;12.07;;
57441;SDS011;43284;47.042;15.498;2024-01-30T08:59:29;31.20;;;11.07;;
57441;SDS011;43284;47.042;15.498;2024-01-30T09:01:55;27.85;;;11.10;;
57441;SDS011;43284;47.042;15.498;2024-01-30T09:04:23;31.88;;;11.75;;
57441;SDS011;43284;47.042;15.498;2024-01-30T09:06:50;31.23;;;12.02;;
57441;SDS011;43284;47.042;15.498;2024-01-30T09:09:16;27.33;;;11.15;;
57441;SDS011;43284;47.042;15.498;2024-01-30T09:11:43;30.58;;;11.30;;
57441;SDS011;43284;47.042;15.498;2024-01-30T09:14:09;31.73;;;14.07;;
57441;SDS011;43284;47.042;15.498;2024-01-30T09:16:35;30.35;;;13.35;;
57441;SDS011;43284;47.042;15.498;2024-01-30T09:19:01;33.50;;;12.73;;
57441;SDS011;43284;47.042;15.498;2024-01-30T09:21:27;29.40;;;11.48;;
57441;SDS011;43284;47.042;15.498;2024-01-30T09:24:01;29.23;;;11.05;;
57441;SDS011;43284;47.042;15.498;2024-01-30T09:26:31;30.15;;;11.85;;
57441;SDS011;43284;47.042;15.498;2024-01-30T09:28:57;24.70;;;11.43;;
57441;SDS011;43284;47.042;15.498;2024-01-30T09:31:23;30.55;;;12.18;;
57441;SDS011;43284;47.042;15.498;2024-01-30T09:33:49;29.65;;;12.98;;
57441;SDS011;43284;47.042;15.498;2024-01-30T09:36:16;31.92;;;11.10;;
57441;SDS011;43284;47.042;15.498;2024-01-30T09:38:45;35.17;;;12.05;;
57441;SDS011;43284;47.042;15.498;2024-01-30T09:41:11;31.85;;;12.63;;
57441;SDS011;43284;47.042;15.498;2024-01-30T09:43:38;27.98;;;11.27;;
57441;SDS011;43284;47.042;15.498;2024-01-30T09:46:05;24.55;;;10.00;;
57441;SDS011;43284;47.042;15.498;2024-01-30T09:48:37;32.88;;;11.10;;
57441;SDS011;43284;47.042;15.498;2024-01-30T09:51:06;29.40;;;10.57;;
57441;SDS011;43284;47.042;15.498;2024-01-30T09:53:33;32.10;;;10.02;;
57441;SDS011;43284;47.042;15.498;2024-01-30T09:56:02;25.15;;;10.40;;
57441;SDS011;43284;47.042;15.498;2024-01-30T09:58:28;26.27;;;10.75;;
57441;SDS011;43284;47.042;15.498;2024-01-30T10:00:54;26.55;;;10.43;;
57441;SDS011;43284;47.042;15.498;2024-01-30T10:03:21;24.58;;;10.10;;
57441;SDS011;43284;47.042;15.498;2024-01-30T10:05:53;22.38;;;9.18;;
57441;SDS011;43284;47.042;15.498;2024-01-30T10:08:21;28.02;;;9.95;;
57441;SDS011;43284;47.042;15.498;2024-01-30T10:10:48;21.92;;;9.57;;
57441;SDS011;43284;47.042;15.498;2024-01-30T10:13:15;23.52;;;8.82;;
57441;SDS011;43284;47.042;15.498;2024-01-30T10:15:42;32.47;;;11.00;;
57441;SDS011;43284;47.042;15.498;2024-01-30T10:18:08;18.45;;;8.70;;
57441;SDS011;43284;47.042;15.498;2024-01-30T10:20:35;22.25;;;9.43;;
57441;SDS011;43284;47.042;15.498;2024-01-30T10:23:05;23.80;;;9.20;;
57441;SDS011;43284;47.042;15.498;2024-01-30T10:25:31;22.60;;;9.13;;
57441;SDS011;43284;47.042;15.498;2024-01-30T10:27:58;26.80;;;9.68;;
57441;SDS011;43284;47.042;15.498;2024-01-30T10:30:24;22.80;;;9.07;;
57441;SDS011;43284;47.042;15.498;2024-01-30T10:32:51;25.00;;;9.70;;
57441;SDS011;43284;47.042;15.498;2024-01-30T10:35:17;23.98;;;9.07;;
57441;SDS011;43284;47.042;15.498;2024-01-30T10:37:43;25.75;;;10.07;;
57441;SDS011;43284;47.042;15.498;2024-01-30T10:40:09;25.88;;;10.02;;
57441;SDS011;43284;47.042;15.498;2024-01-30T10:42:38;23.88;;;8.68;;
57441;SDS011;43284;47.042;15.498;2024-01-30T10:45:13;27.58;;;10.57;;
57441;SDS011;43284;47.042;15.498;2024-01-30T10:47:43;23.33;;;8.98;;
57441;SDS011;43284;47.042;15.498;2024-01-30T10:52:40;18.85;;;8.40;;
57441;SDS011;43284;47.042;15.498;2024-01-30T10:55:07;26.58;;;8.82;;
57441;SDS011;43284;47.042;15.498;2024-01-30T10:57:36;20.30;;;8.65;;
57441;SDS011;43284;47.042;15.498;2024-01-30T11:00:03;18.52;;;7.72;;
57441;SDS011;43284;47.042;15.498;2024-01-30T11:02:35;20.17;;;7.80;;
57441;SDS011;43284;47.042;15.498;2024-01-30T11:05:05;19.95;;;8.05;;
57441;SDS011;43284;47.042;15.498;2024-01-30T11:07:31;17.38;;;7.35;;
57441;SDS011;43284;47.042;15.498;2024-01-30T11:12:23;21.42;;;7.78;;
57441;SDS011;43284;47.042;15.498;2024-01-30T11:14:50;13.95;;;7.18;;
57441;SDS011;43284;47.042;15.498;2024-01-30T11:17:28;23.23;;;9.00;;
57441;SDS011;43284;47.042;15.498;2024-01-30T11:20:04;17.85;;;7.28;;
57441;SDS011;43284;47.042;15.498;2024-01-30T11:22:32;19.58;;;8.25;;
57441;SDS011;43284;47.042;15.498;2024-01-30T11:25:03;19.20;;;7.50;;
57441;SDS011;43284;47.042;15.498;2024-01-30T11:27:33;20.65;;;7.53;;
57441;SDS011;43284;47.042;15.498;2024-01-30T11:30:02;18.75;;;7.93;;
57441;SDS011;43284;47.042;15.498;2024-01-30T11:32:29;22.52;;;8.15;;
57441;SDS011;43284;47.042;15.498;2024-01-30T11:34:55;16.25;;;7.00;;
57441;SDS011;43284;47.042;15.498;2024-01-30T11:37:20;20.30;;;7.30;;
57441;SDS011;43284;47.042;15.498;2024-01-30T11:39:49;13.77;;;6.93;;
57441;SDS011;43284;47.042;15.498;2024-01-30T11:42:15;13.95;;;6.30;;
57441;SDS011;43284;47.042;15.498;2024-01-30T11:44:46;22.42;;;8.23;;
57441;SDS011;43284;47.042;15.498;2024-01-30T11:47:15;20.02;;;6.65;;
57441;SDS011;43284;47.042;15.498;2024-01-30T11:49:41;19.52;;;7.35;;
57441;SDS011;43284;47.042;15.498;2024-01-30T11:52:06;13.95;;;6.82;;
57441;SDS011;43284;47.042;15.498;2024-01-30T11:54:32;16.23;;;6.93;;
57441;SDS011;43284;47.042;15.498;2024-01-30T11:56:57;21.70;;;7.63;;
57441;SDS011;43284;47.042;15.498;2024-01-30T11:59:23;20.23;;;7.25;;
57441;SDS011;43284;47.042;15.498;2024-01-30T12:01:51;15.27;;;6.90;;
57441;SDS011;43284;47.042;15.498;2024-01-30T12:04:17;17.52;;;7.18;;
57441;SDS011;43284;47.042;15.498;2024-01-30T12:06:43;14.65;;;6.38;;
57441;SDS011;43284;47.042;15.498;2024-01-30T12:09:09;18.55;;;7.10;;
57441;SDS011;43284;47.042;15.498;2024-01-30T12:11:46;18.80;;;7.45;;
57441;SDS011;43284;47.042;15.498;2024-01-30T12:14:12;15.88;;;7.15;;
57441;SDS011;43284;47.042;15.498;2024-01-30T12:16:39;14.88;;;6.22;;
57441;SDS011;43284;47.042;15.498;2024-01-30T12:19:06;13.45;;;6.75;;
57441;SDS011;43284;47.042;15.498;2024-01-30T12:21:33;18.20;;;6.53;;
57441;SDS011;43284;47.042;15.498;2024-01-30T12:24:01;20.55;;;7.10;;
57441;SDS011;43284;47.042;15.498;2024-01-30T12:26:27;18.15;;;7.03;;
57441;SDS011;43284;47.042;15.498;2024-01-30T12:28:56;13.80;;;6.13;;
57441;SDS011;43284;47.042;15.498;2024-01-30T12:31:27;14.43;;;5.88;;
57441;SDS011;43284;47.042;15.498;2024-01-30T12:33:54;18.33;;;6.15;;
57441;SDS011;43284;47.042;15.498;2024-01-30T12:36:21;16.70;;;7.15;;
57441;SDS011;43284;47.042;15.498;2024-01-30T12:38:47;17.17;;;6.10;;
57441;SDS011;43284;47.042;15.498;2024-01-30T12:41:14;14.20;;;6.70;;
57441;SDS011;43284;47.042;15.498;2024-01-30T12:43:40;14.82;;;6.93;;
57441;SDS011;43284;47.042;15.498;2024-01-30T12:46:07;15.15;;;7.30;;
57441;SDS011;43284;47.042;15.498;2024-01-30T12:48:34;16.73;;;5.97;;
57441;SDS011;43284;47.042;15.498;2024-01-30T12:51:00;17.42;;;6.43;;
57441;SDS011;43284;47.042;15.498;2024-01-30T12:53:27;14.60;;;7.15;;
57441;SDS011;43284;47.042;15.498;2024-01-30T12:55:53;15.55;;;6.55;;
57441;SDS011;43284;47.042;15.498;2024-01-30T12:58:20;18.00;;;6.78;;
57441;SDS011;43284;47.042;15.498;2024-01-30T13:00:46;20.17;;;6.82;;
57441;SDS011;43284;47.042;15.498;2024-01-30T13:03:12;13.57;;;6.32;;
57441;SDS011;43284;47.042;15.498;2024-01-30T13:05:38;16.40;;;7.55;;
57441;SDS011;43284;47.042;15.498;2024-01-30T13:08:04;14.30;;;7.15;;
57441;SDS011;43284;47.042;15.498;2024-01-30T13:10:31;17.67;;;7.65;;
57441;SDS011;43284;47.042;15.498;2024-01-30T13:12:57;12.18;;;6.45;;
57441;SDS011;43284;47.042;15.498;2024-01-30T13:15:23;15.15;;;7.45;;
57441;SDS011;43284;47.042;15.498;2024-01-30T13:17:49;17.00;;;6.95;;
57441;SDS011;43284;47.042;15.498;2024-01-30T13:20:18;17.85;;;7.20;;
57441;SDS011;43284;47.042;15.498;2024-01-30T13:22:47;16.73;;;7.05;;
57441;SDS011;43284;47.042;15.498;2024-01-30T13:25:15;15.20;;;7.05;;
57441;SDS011;43284;47.042;15.498;2024-01-30T13:27:42;19.45;;;6.13;;
57441;SDS011;43284;47.042;15.498;2024-01-30T13:30:08;16.58;;;7.22;;
57441;SDS011;43284;47.042;15.498;2024-01-30T13:32:34;15.60;;;6.80;;
57441;SDS011;43284;47.042;15.498;2024-01-30T13:35:00;14.95;;;6.63;;
57441;SDS011;43284;47.042;15.498;2024-01-30T13:37:26;14.70;;;6.68;;
57441;SDS011;43284;47.042;15.498;2024-01-30T13:39:52;18.08;;;7.03;;
57441;SDS011;43284;47.042;15.498;2024-01-30T13:42:19;15.52;;;6.88;;
57441;SDS011;43284;47.042;15.498;2024-01-30T13:44:45;18.40;;;7.15;;
57441;SDS011;43284;47.042;15.498;2024-01-30T13:47:11;13.20;;;7.18;;
57441;SDS011;43284;47.042;15.498;2024-01-30T13:49:38;17.80;;;6.72;;
57441;SDS011;43284;47.042;15.498;2024-01-30T13:52:04;13.65;;;6.70;;
57441;SDS011;43284;47.042;15.498;2024-01-30T13:54:30;13.68;;;6.43;;
57441;SDS011;43284;47.042;15.498;2024-01-30T13:56:55;15.60;;;6.90;;
57441;SDS011;43284;47.042;15.498;2024-01-30T13:59:22;14.85;;;6.63;;
57441;SDS011;43284;47.042;15.498;2024-01-30T14:01:50;20.75;;;7.38;;
57441;SDS011;43284;47.042;15.498;2024-01-30T14:04:16;17.27;;;7.32;;
57441;SDS011;43284;47.042;15.498;2024-01-30T14:06:42;14.48;;;6.63;;
57441;SDS011;43284;47.042;15.498;2024-01-30T14:09:07;16.52;;;6.60;;
57441;SDS011;43284;47.042;15.498;2024-01-30T14:11:33;19.25;;;7.35;;
57441;SDS011;43284;47.042;15.498;2024-01-30T14:13:59;14.27;;;7.25;;
57441;SDS011;43284;47.042;15.498;2024-01-30T14:16:24;17.65;;;7.43;;
57441;SDS011;43284;47.042;15.498;2024-01-30T14:18:50;15.23;;;7.18;;